Decoded Metar for KAUS (AUSTIN in TX, USA) (IATA:AUS) | Meteo·Mobile Aviation Weather
aviador You're here:

KAUS Decoded Metar

AUSTIN in TX, USA
Report Time2018-09-18 21:53:00
UTC Time2018-09-18 22:02:49
Flight Rules vfr VFR
Wind190° at 07 kt
W.Decomp.*RWY 17: 6.8 kt HW 1.7 kt RCW
W.Rank190° ranks 4
Current wind is below 190° avg. (8.5)
Visibility9999 m
Phenomena:N/A
Clouds:Few 050 Hf
Scattered 150 Hf
Scattered 200 Hf
Expected CloudBase > 5,200 ft AGL from Temp-Dew spread
CeilingNone
Temp33°C (ISA +19)
Dew Point20°C (46% RH)
Heat Index35.2°C
QNH1013 hPa
Density Alt3,028 ft
Elevation545 ft
Report Wrong Elevation
Raw Report
KAUS 182153Z 19007KT 10SM FEW050 SCT150 SCT200 33/20 A2991 RMK AO2
SLP115 T03330200=

Extra information for KAUS:More info

Metar Taf Metar & Taf Last 4 Metars F.Rules Stats Wind Profile Meteogram Temp Stats Airport Information Weather charts Add Link Nearby VenuesMetar ALERT Operation Metar Decoded Social comments

AIRNAV info for KAUS